sensor_id;sensor_type;location;lat;lon;timestamp;temperature;humidity
74822;DHT22;63353;48.702;8.884;2023-03-14T00:01:59;8.10;99.90
74822;DHT22;63353;48.702;8.884;2023-03-14T00:04:24;8.10;99.90
74822;DHT22;63353;48.702;8.884;2023-03-14T00:06:53;8.00;99.90
74822;DHT22;63353;48.702;8.884;2023-03-14T00:09:21;8.00;99.90
74822;DHT22;63353;48.702;8.884;2023-03-14T00:11:50;8.10;99.90
74822;DHT22;63353;48.702;8.884;2023-03-14T00:14:16;8.00;99.90
74822;DHT22;63353;48.702;8.884;2023-03-14T00:16:45;8.10;99.90
74822;DHT22;63353;48.702;8.884;2023-03-14T00:19:16;8.00;99.90
74822;DHT22;63353;48.702;8.884;2023-03-14T00:21:45;8.10;99.90
74822;DHT22;63353;48.702;8.884;2023-03-14T00:24:13;8.00;99.90
74822;DHT22;63353;48.702;8.884;2023-03-14T00:26:39;8.00;99.90
74822;DHT22;63353;48.702;8.884;2023-03-14T00:29:10;8.00;99.90
74822;DHT22;63353;48.702;8.884;2023-03-14T00:31:39;8.00;99.90
74822;DHT22;63353;48.702;8.884;2023-03-14T00:34:05;7.90;99.90
74822;DHT22;63353;48.702;8.884;2023-03-14T00:36:36;7.90;99.90
74822;DHT22;63353;48.702;8.884;2023-03-14T00:39:07;7.80;99.90
74822;DHT22;63353;48.702;8.884;2023-03-14T00:41:33;7.80;99.90
74822;DHT22;63353;48.702;8.884;2023-03-14T00:44:04;7.80;99.90
74822;DHT22;63353;48.702;8.884;2023-03-14T00:46:33;7.80;99.90
74822;DHT22;63353;48.702;8.884;2023-03-14T00:48:59;7.80;99.90
74822;DHT22;63353;48.702;8.884;2023-03-14T00:51:27;7.90;99.90
74822;DHT22;63353;48.702;8.884;2023-03-14T00:53:56;7.90;99.90
74822;DHT22;63353;48.702;8.884;2023-03-14T00:56:33;8.00;99.90
74822;DHT22;63353;48.702;8.884;2023-03-14T00:58:59;8.10;99.90
74822;DHT22;63353;48.702;8.884;2023-03-14T01:01:24;8.10;99.90
74822;DHT22;63353;48.702;8.884;2023-03-14T01:03:54;8.20;99.90
74822;DHT22;63353;48.702;8.884;2023-03-14T01:06:25;8.20;99.90
74822;DHT22;63353;48.702;8.884;2023-03-14T01:08:52;8.20;99.90
74822;DHT22;63353;48.702;8.884;2023-03-14T01:11:30;8.20;99.90
74822;DHT22;63353;48.702;8.884;2023-03-14T01:14:05;8.20;99.90
74822;DHT22;63353;48.702;8.884;2023-03-14T01:16:33;8.30;99.90
74822;DHT22;63353;48.702;8.884;2023-03-14T01:18:59;8.40;99.90
74822;DHT22;63353;48.702;8.884;2023-03-14T01:21:31;8.40;99.90
74822;DHT22;63353;48.702;8.884;2023-03-14T01:23:58;8.40;99.90
74822;DHT22;63353;48.702;8.884;2023-03-14T01:26:26;8.40;99.90
74822;DHT22;63353;48.702;8.884;2023-03-14T01:28:54;8.40;99.90
74822;DHT22;63353;48.702;8.884;2023-03-14T01:31:19;8.30;99.90
74822;DHT22;63353;48.702;8.884;2023-03-14T01:33:46;8.20;99.90
74822;DHT22;63353;48.702;8.884;2023-03-14T01:36:15;8.20;99.90
74822;DHT22;63353;48.702;8.884;2023-03-14T01:38:41;8.20;99.90
74822;DHT22;63353;48.702;8.884;2023-03-14T01:41:11;8.20;99.90
74822;DHT22;63353;48.702;8.884;2023-03-14T01:43:37;8.10;99.90
74822;DHT22;63353;48.702;8.884;2023-03-14T01:49:05;8.10;99.90
74822;DHT22;63353;48.702;8.884;2023-03-14T01:51:41;8.10;99.90
74822;DHT22;63353;48.702;8.884;2023-03-14T01:59:31;8.20;99.90
74822;DHT22;63353;48.702;8.884;2023-03-14T02:01:58;8.20;99.90
74822;DHT22;63353;48.702;8.884;2023-03-14T02:04:29;8.20;99.90
74822;DHT22;63353;48.702;8.884;2023-03-14T02:09:41;8.10;99.90
74822;DHT22;63353;48.702;8.884;2023-03-14T02:12:09;8.10;99.90
74822;DHT22;63353;48.702;8.884;2023-03-14T02:14:38;8.10;99.90
74822;DHT22;63353;48.702;8.884;2023-03-14T02:17:05;8.10;99.90
74822;DHT22;63353;48.702;8.884;2023-03-14T02:22:25;8.10;99.90
74822;DHT22;63353;48.702;8.884;2023-03-14T02:28:00;8.00;99.90
74822;DHT22;63353;48.702;8.884;2023-03-14T02:30:28;7.90;99.90
74822;DHT22;63353;48.702;8.884;2023-03-14T02:33:13;7.90;99.90
74822;DHT22;63353;48.702;8.884;2023-03-14T02:36:04;8.00;99.90
74822;DHT22;63353;48.702;8.884;2023-03-14T02:39:00;8.00;99.90
74822;DHT22;63353;48.702;8.884;2023-03-14T02:41:41;8.00;99.90
74822;DHT22;63353;48.702;8.884;2023-03-14T02:44:13;8.00;99.90
74822;DHT22;63353;48.702;8.884;2023-03-14T02:46:39;8.00;99.90
74822;DHT22;63353;48.702;8.884;2023-03-14T02:49:10;8.00;99.90
74822;DHT22;63353;48.702;8.884;2023-03-14T02:51:41;8.00;99.90
74822;DHT22;63353;48.702;8.884;2023-03-14T02:54:11;8.00;99.90
74822;DHT22;63353;48.702;8.884;2023-03-14T02:56:37;8.00;99.90
74822;DHT22;63353;48.702;8.884;2023-03-14T02:59:23;8.00;99.90
74822;DHT22;63353;48.702;8.884;2023-03-14T03:01:54;7.90;99.90
74822;DHT22;63353;48.702;8.884;2023-03-14T03:04:23;7.90;99.90
74822;DHT22;63353;48.702;8.884;2023-03-14T03:06:48;7.80;99.90
74822;DHT22;63353;48.702;8.884;2023-03-14T03:09:14;7.90;99.90
74822;DHT22;63353;48.702;8.884;2023-03-14T03:11:46;7.80;99.90
74822;DHT22;63353;48.702;8.884;2023-03-14T03:14:27;7.80;99.90
74822;DHT22;63353;48.702;8.884;2023-03-14T03:16:52;7.70;99.90
74822;DHT22;63353;48.702;8.884;2023-03-14T03:19:24;7.70;99.90
74822;DHT22;63353;48.702;8.884;2023-03-14T03:21:52;7.70;99.90
74822;DHT22;63353;48.702;8.884;2023-03-14T03:24:21;7.70;99.90
74822;DHT22;63353;48.702;8.884;2023-03-14T03:26:50;7.70;99.90
74822;DHT22;63353;48.702;8.884;2023-03-14T03:29:24;7.70;99.90
74822;DHT22;63353;48.702;8.884;2023-03-14T03:31:50;7.60;99.90
74822;DHT22;63353;48.702;8.884;2023-03-14T03:34:16;7.50;99.90
74822;DHT22;63353;48.702;8.884;2023-03-14T03:36:47;7.50;99.90
74822;DHT22;63353;48.702;8.884;2023-03-14T03:39:13;7.50;99.90
74822;DHT22;63353;48.702;8.884;2023-03-14T03:41:51;7.50;99.90
74822;DHT22;63353;48.702;8.884;2023-03-14T03:44:19;7.50;99.90
74822;DHT22;63353;48.702;8.884;2023-03-14T03:46:45;7.40;99.90
74822;DHT22;63353;48.702;8.884;2023-03-14T03:49:20;7.30;99.90
74822;DHT22;63353;48.702;8.884;2023-03-14T03:51:45;7.30;99.90
74822;DHT22;63353;48.702;8.884;2023-03-14T03:54:20;7.40;99.90
74822;DHT22;63353;48.702;8.884;2023-03-14T03:56:46;7.40;99.90
74822;DHT22;63353;48.702;8.884;2023-03-14T03:59:18;7.30;99.90
74822;DHT22;63353;48.702;8.884;2023-03-14T04:01:43;7.20;99.90
74822;DHT22;63353;48.702;8.884;2023-03-14T04:04:21;7.20;99.90
74822;DHT22;63353;48.702;8.884;2023-03-14T04:06:50;7.10;99.90
74822;DHT22;63353;48.702;8.884;2023-03-14T04:09:15;7.00;99.90
74822;DHT22;63353;48.702;8.884;2023-03-14T04:11:41;7.00;99.90
74822;DHT22;63353;48.702;8.884;2023-03-14T04:14:13;7.10;99.90
74822;DHT22;63353;48.702;8.884;2023-03-14T04:16:41;7.20;99.90
74822;DHT22;63353;48.702;8.884;2023-03-14T04:19:07;7.20;99.90
74822;DHT22;63353;48.702;8.884;2023-03-14T04:21:33;7.20;99.90
74822;DHT22;63353;48.702;8.884;2023-03-14T04:23:58;7.20;99.90
74822;DHT22;63353;48.702;8.884;2023-03-14T04:26:24;7.30;99.90
74822;DHT22;63353;48.702;8.884;2023-03-14T04:28:50;7.30;99.90
74822;DHT22;63353;48.702;8.884;2023-03-14T04:31:20;7.20;99.90
74822;DHT22;63353;48.702;8.884;2023-03-14T04:33:46;7.20;99.90
74822;DHT22;63353;48.702;8.884;2023-03-14T04:36:12;7.20;99.90
74822;DHT22;63353;48.702;8.884;2023-03-14T04:38:38;7.40;99.90
74822;DHT22;63353;48.702;8.884;2023-03-14T04:41:04;7.40;99.90
74822;DHT22;63353;48.702;8.884;2023-03-14T04:43:30;7.30;99.90
74822;DHT22;63353;48.702;8.884;2023-03-14T04:45:56;7.40;99.90
74822;DHT22;63353;48.702;8.884;2023-03-14T04:48:23;7.40;99.90
74822;DHT22;63353;48.702;8.884;2023-03-14T04:50:52;7.40;99.90
74822;DHT22;63353;48.702;8.884;2023-03-14T04:53:18;7.40;99.90
74822;DHT22;63353;48.702;8.884;2023-03-14T04:55:51;7.30;99.90
74822;DHT22;63353;48.702;8.884;2023-03-14T04:58:18;7.30;99.90
74822;DHT22;63353;48.702;8.884;2023-03-14T05:00:47;7.40;99.90
74822;DHT22;63353;48.702;8.884;2023-03-14T05:03:17;7.40;99.90
74822;DHT22;63353;48.702;8.884;2023-03-14T05:05:43;7.30;99.90
74822;DHT22;63353;48.702;8.884;2023-03-14T05:08:13;7.20;99.90
74822;DHT22;63353;48.702;8.884;2023-03-14T05:10:38;7.10;99.90
74822;DHT22;63353;48.702;8.884;2023-03-14T05:13:04;7.20;99.90
74822;DHT22;63353;48.702;8.884;2023-03-14T05:15:30;7.10;99.90
74822;DHT22;63353;48.702;8.884;2023-03-14T05:17:55;7.10;99.90
74822;DHT22;63353;48.702;8.884;2023-03-14T05:20:21;7.20;99.90
74822;DHT22;63353;48.702;8.884;2023-03-14T05:22:47;7.20;99.90
74822;DHT22;63353;48.702;8.884;2023-03-14T05:25:12;7.30;99.90
74822;DHT22;63353;48.702;8.884;2023-03-14T05:27:42;7.30;99.90
74822;DHT22;63353;48.702;8.884;2023-03-14T05:30:11;7.40;99.90
74822;DHT22;63353;48.702;8.884;2023-03-14T05:32:39;7.40;99.90
74822;DHT22;63353;48.702;8.884;2023-03-14T05:35:05;7.40;99.90
74822;DHT22;63353;48.702;8.884;2023-03-14T05:37:31;7.30;99.90
74822;DHT22;63353;48.702;8.884;2023-03-14T05:39:56;7.20;99.90
74822;DHT22;63353;48.702;8.884;2023-03-14T05:42:22;7.10;99.90
74822;DHT22;63353;48.702;8.884;2023-03-14T05:44:48;7.00;99.90
74822;DHT22;63353;48.702;8.884;2023-03-14T05:47:13;7.10;99.90
74822;DHT22;63353;48.702;8.884;2023-03-14T05:49:45;7.10;99.90
74822;DHT22;63353;48.702;8.884;2023-03-14T05:52:10;7.00;99.90
74822;DHT22;63353;48.702;8.884;2023-03-14T05:54:42;7.00;99.90
74822;DHT22;63353;48.702;8.884;2023-03-14T05:57:08;7.20;99.90
74822;DHT22;63353;48.702;8.884;2023-03-14T05:59:34;7.10;99.90
74822;DHT22;63353;48.702;8.884;2023-03-14T06:01:59;7.20;99.90
74822;DHT22;63353;48.702;8.884;2023-03-14T06:04:25;7.30;99.90
74822;DHT22;63353;48.702;8.884;2023-03-14T06:06:59;7.30;99.90
74822;DHT22;63353;48.702;8.884;2023-03-14T06:09:34;7.20;99.90
74822;DHT22;63353;48.702;8.884;2023-03-14T06:12:00;7.10;99.90
74822;DHT22;63353;48.702;8.884;2023-03-14T06:14:25;7.00;99.90
74822;DHT22;63353;48.702;8.884;2023-03-14T06:16:51;7.00;99.90
74822;DHT22;63353;48.702;8.884;2023-03-14T06:19:27;7.00;99.90
74822;DHT22;63353;48.702;8.884;2023-03-14T06:21:52;6.80;99.90
74822;DHT22;63353;48.702;8.884;2023-03-14T06:24:18;6.70;99.90
74822;DHT22;63353;48.702;8.884;2023-03-14T06:26:43;6.70;99.90
74822;DHT22;63353;48.702;8.884;2023-03-14T06:29:10;6.80;99.90
74822;DHT22;63353;48.702;8.884;2023-03-14T06:31:38;6.90;99.90
74822;DHT22;63353;48.702;8.884;2023-03-14T06:34:07;6.90;99.90
74822;DHT22;63353;48.702;8.884;2023-03-14T06:36:36;7.00;99.90
74822;DHT22;63353;48.702;8.884;2023-03-14T06:39:01;7.00;99.90
74822;DHT22;63353;48.702;8.884;2023-03-14T06:41:27;7.00;99.90
74822;DHT22;63353;48.702;8.884;2023-03-14T06:43:58;7.20;99.90
74822;DHT22;63353;48.702;8.884;2023-03-14T06:46:32;7.30;99.90
74822;DHT22;63353;48.702;8.884;2023-03-14T06:49:01;7.50;99.90
74822;DHT22;63353;48.702;8.884;2023-03-14T06:51:33;7.50;99.90
74822;DHT22;63353;48.702;8.884;2023-03-14T06:53:59;7.50;99.90
74822;DHT22;63353;48.702;8.884;2023-03-14T06:56:27;7.50;99.90
74822;DHT22;63353;48.702;8.884;2023-03-14T06:58:56;7.60;99.90
74822;DHT22;63353;48.702;8.884;2023-03-14T07:01:27;7.70;99.90
74822;DHT22;63353;48.702;8.884;2023-03-14T07:03:53;7.90;99.90
74822;DHT22;63353;48.702;8.884;2023-03-14T07:06:22;8.00;99.90
74822;DHT22;63353;48.702;8.884;2023-03-14T07:08:51;7.90;99.90
74822;DHT22;63353;48.702;8.884;2023-03-14T07:11:16;8.00;99.90
74822;DHT22;63353;48.702;8.884;2023-03-14T07:13:54;8.10;99.90
74822;DHT22;63353;48.702;8.884;2023-03-14T07:16:20;8.20;99.90
74822;DHT22;63353;48.702;8.884;2023-03-14T07:18:57;8.30;99.90
74822;DHT22;63353;48.702;8.884;2023-03-14T07:21:23;8.50;99.90
74822;DHT22;63353;48.702;8.884;2023-03-14T07:23:55;8.50;99.90
74822;DHT22;63353;48.702;8.884;2023-03-14T07:26:33;8.60;99.90
74822;DHT22;63353;48.702;8.884;2023-03-14T07:28:59;8.70;99.90
74822;DHT22;63353;48.702;8.884;2023-03-14T07:31:24;8.80;99.90
74822;DHT22;63353;48.702;8.884;2023-03-14T07:33:50;9.00;99.90
74822;DHT22;63353;48.702;8.884;2023-03-14T07:36:16;9.10;99.90
74822;DHT22;63353;48.702;8.884;2023-03-14T07:38:47;9.30;99.90
74822;DHT22;63353;48.702;8.884;2023-03-14T07:41:13;9.40;99.90
74822;DHT22;63353;48.702;8.884;2023-03-14T07:43:39;9.50;99.90
74822;DHT22;63353;48.702;8.884;2023-03-14T07:46:20;9.60;99.90
74822;DHT22;63353;48.702;8.884;2023-03-14T07:48:58;9.80;99.90
74822;DHT22;63353;48.702;8.884;2023-03-14T07:51:23;9.80;99.90
74822;DHT22;63353;48.702;8.884;2023-03-14T07:54:04;9.80;99.90
74822;DHT22;63353;48.702;8.884;2023-03-14T07:56:29;10.00;99.90
74822;DHT22;63353;48.702;8.884;2023-03-14T07:59:07;10.20;99.90
74822;DHT22;63353;48.702;8.884;2023-03-14T08:01:36;10.20;99.90
74822;DHT22;63353;48.702;8.884;2023-03-14T08:04:04;10.20;99.90
74822;DHT22;63353;48.702;8.884;2023-03-14T08:06:33;10.30;99.90
74822;DHT22;63353;48.702;8.884;2023-03-14T08:09:00;10.20;99.90
74822;DHT22;63353;48.702;8.884;2023-03-14T08:11:25;9.90;99.90
74822;DHT22;63353;48.702;8.884;2023-03-14T08:13:51;9.90;99.90
74822;DHT22;63353;48.702;8.884;2023-03-14T08:16:23;9.90;99.90
74822;DHT22;63353;48.702;8.884;2023-03-14T08:18:58;9.80;99.90
74822;DHT22;63353;48.702;8.884;2023-03-14T08:21:26;9.70;99.90
74822;DHT22;63353;48.702;8.884;2023-03-14T08:24:01;9.50;99.90
74822;DHT22;63353;48.702;8.884;2023-03-14T08:26:30;9.40;99.90
74822;DHT22;63353;48.702;8.884;2023-03-14T08:28:58;9.40;99.90
74822;DHT22;63353;48.702;8.884;2023-03-14T08:31:30;9.60;99.90
74822;DHT22;63353;48.702;8.884;2023-03-14T08:34:02;9.70;99.90
74822;DHT22;63353;48.702;8.884;2023-03-14T08:36:30;10.00;99.90
74822;DHT22;63353;48.702;8.884;2023-03-14T08:38:59;10.10;99.90
74822;DHT22;63353;48.702;8.884;2023-03-14T08:41:28;10.10;99.90
74822;DHT22;63353;48.702;8.884;2023-03-14T08:44:03;10.00;99.90
74822;DHT22;63353;48.702;8.884;2023-03-14T08:46:28;10.00;99.90
74822;DHT22;63353;48.702;8.884;2023-03-14T08:48:54;10.00;99.90
74822;DHT22;63353;48.702;8.884;2023-03-14T08:51:25;9.80;99.90
74822;DHT22;63353;48.702;8.884;2023-03-14T08:54:00;9.60;99.90
74822;DHT22;63353;48.702;8.884;2023-03-14T08:56:26;9.40;99.90
74822;DHT22;63353;48.702;8.884;2023-03-14T08:58:58;9.50;99.90
74822;DHT22;63353;48.702;8.884;2023-03-14T09:01:26;9.50;99.90
74822;DHT22;63353;48.702;8.884;2023-03-14T09:04:01;9.50;99.90
74822;DHT22;63353;48.702;8.884;2023-03-14T09:06:27;9.40;99.90
74822;DHT22;63353;48.702;8.884;2023-03-14T09:09:02;9.50;99.90
74822;DHT22;63353;48.702;8.884;2023-03-14T09:11:33;9.50;99.90
74822;DHT22;63353;48.702;8.884;2023-03-14T09:13:59;9.60;99.90
74822;DHT22;63353;48.702;8.884;2023-03-14T09:16:25;9.70;99.90
74822;DHT22;63353;48.702;8.884;2023-03-14T09:18:50;9.70;99.90
74822;DHT22;63353;48.702;8.884;2023-03-14T09:21:20;9.60;99.90
74822;DHT22;63353;48.702;8.884;2023-03-14T09:23:55;9.50;99.90
74822;DHT22;63353;48.702;8.884;2023-03-14T09:26:24;9.50;99.90
74822;DHT22;63353;48.702;8.884;2023-03-14T09:28:55;9.40;99.90
74822;DHT22;63353;48.702;8.884;2023-03-14T09:31:26;9.40;99.90
74822;DHT22;63353;48.702;8.884;2023-03-14T09:33:55;9.50;99.90
74822;DHT22;63353;48.702;8.884;2023-03-14T09:36:33;9.70;99.90
74822;DHT22;63353;48.702;8.884;2023-03-14T09:38:58;9.70;99.90
74822;DHT22;63353;48.702;8.884;2023-03-14T09:41:25;9.80;99.90
74822;DHT22;63353;48.702;8.884;2023-03-14T09:46:45;10.10;99.90
74822;DHT22;63353;48.702;8.884;2023-03-14T09:49:34;9.90;99.90
74822;DHT22;63353;48.702;8.884;2023-03-14T09:52:33;10.00;99.90
74822;DHT22;63353;48.702;8.884;2023-03-14T09:55:19;10.30;99.90
74822;DHT22;63353;48.702;8.884;2023-03-14T09:57:48;10.40;99.90
74822;DHT22;63353;48.702;8.884;2023-03-14T10:00:27;10.40;99.90
74822;DHT22;63353;48.702;8.884;2023-03-14T10:02:56;11.00;99.90
74822;DHT22;63353;48.702;8.884;2023-03-14T10:05:24;11.30;99.90
74822;DHT22;63353;48.702;8.884;2023-03-14T10:07:52;11.50;99.90
74822;DHT22;63353;48.702;8.884;2023-03-14T10:10:23;11.30;99.90
74822;DHT22;63353;48.702;8.884;2023-03-14T10:15:48;11.10;99.90
74822;DHT22;63353;48.702;8.884;2023-03-14T10:18:14;11.20;99.90
74822;DHT22;63353;48.702;8.884;2023-03-14T10:20:47;11.00;99.90
74822;DHT22;63353;48.702;8.884;2023-03-14T10:25:42;11.00;99.90
74822;DHT22;63353;48.702;8.884;2023-03-14T10:28:26;11.30;99.90
74822;DHT22;63353;48.702;8.884;2023-03-14T10:30:53;11.10;99.90
74822;DHT22;63353;48.702;8.884;2023-03-14T10:33:25;11.00;99.90
74822;DHT22;63353;48.702;8.884;2023-03-14T10:36:00;10.70;99.90
74822;DHT22;63353;48.702;8.884;2023-03-14T10:38:31;10.50;99.90
74822;DHT22;63353;48.702;8.884;2023-03-14T10:40:57;10.20;99.90
74822;DHT22;63353;48.702;8.884;2023-03-14T10:43:34;10.00;99.90
74822;DHT22;63353;48.702;8.884;2023-03-14T10:46:06;9.90;99.90
74822;DHT22;63353;48.702;8.884;2023-03-14T10:48:36;9.70;99.90
74822;DHT22;63353;48.702;8.884;2023-03-14T10:51:09;9.50;99.90
74822;DHT22;63353;48.702;8.884;2023-03-14T10:54:00;9.60;99.90
74822;DHT22;63353;48.702;8.884;2023-03-14T10:56:28;9.80;99.90
74822;DHT22;63353;48.702;8.884;2023-03-14T10:58:58;9.80;99.90
74822;DHT22;63353;48.702;8.884;2023-03-14T11:01:44;9.90;99.90
74822;DHT22;63353;48.702;8.884;2023-03-14T11:07:18;9.90;99.90
74822;DHT22;63353;48.702;8.884;2023-03-14T11:09:53;9.60;99.90
74822;DHT22;63353;48.702;8.884;2023-03-14T11:15:34;9.30;99.90
74822;DHT22;63353;48.702;8.884;2023-03-14T11:29:18;8.80;99.90
74822;DHT22;63353;48.702;8.884;2023-03-14T11:31:45;8.80;99.90
74822;DHT22;63353;48.702;8.884;2023-03-14T11:34:43;8.90;99.90
74822;DHT22;63353;48.702;8.884;2023-03-14T11:37:36;8.90;99.90
74822;DHT22;63353;48.702;8.884;2023-03-14T11:40:18;9.00;99.90
74822;DHT22;63353;48.702;8.884;2023-03-14T11:42:46;8.90;99.90
74822;DHT22;63353;48.702;8.884;2023-03-14T11:45:36;9.10;99.90
74822;DHT22;63353;48.702;8.884;2023-03-14T11:48:29;9.00;99.90
74822;DHT22;63353;48.702;8.884;2023-03-14T11:50:59;9.00;99.90
74822;DHT22;63353;48.702;8.884;2023-03-14T11:59:07;8.90;99.90
74822;DHT22;63353;48.702;8.884;2023-03-14T12:01:55;8.70;99.90
74822;DHT22;63353;48.702;8.884;2023-03-14T12:07:53;8.30;99.90
74822;DHT22;63353;48.702;8.884;2023-03-14T12:10:26;8.50;99.90
74822;DHT22;63353;48.702;8.884;2023-03-14T12:12:52;8.80;99.90
74822;DHT22;63353;48.702;8.884;2023-03-14T12:15:27;8.90;99.90
74822;DHT22;63353;48.702;8.884;2023-03-14T12:18:02;8.80;99.90
74822;DHT22;63353;48.702;8.884;2023-03-14T12:20:30;8.40;99.90
74822;DHT22;63353;48.702;8.884;2023-03-14T12:23:04;8.80;99.90
74822;DHT22;63353;48.702;8.884;2023-03-14T12:25:34;8.90;99.90
74822;DHT22;63353;48.702;8.884;2023-03-14T12:30:38;8.90;99.90
74822;DHT22;63353;48.702;8.884;2023-03-14T12:33:27;8.90;99.90
74822;DHT22;63353;48.702;8.884;2023-03-14T12:36:01;9.10;99.90
74822;DHT22;63353;48.702;8.884;2023-03-14T12:41:19;9.80;99.90
74822;DHT22;63353;48.702;8.884;2023-03-14T12:43:46;10.00;99.90
74822;DHT22;63353;48.702;8.884;2023-03-14T12:49:04;9.10;99.90
74822;DHT22;63353;48.702;8.884;2023-03-14T12:51:37;8.70;99.90
74822;DHT22;63353;48.702;8.884;2023-03-14T13:00:24;8.60;99.90
74822;DHT22;63353;48.702;8.884;2023-03-14T13:03:22;8.60;99.90
74822;DHT22;63353;48.702;8.884;2023-03-14T13:06:02;9.00;99.90
74822;DHT22;63353;48.702;8.884;2023-03-14T13:08:41;8.70;99.90
74822;DHT22;63353;48.702;8.884;2023-03-14T13:11:19;8.50;99.90
74822;DHT22;63353;48.702;8.884;2023-03-14T13:13:48;8.10;99.90
74822;DHT22;63353;48.702;8.884;2023-03-14T13:16:18;8.00;99.90
74822;DHT22;63353;48.702;8.884;2023-03-14T13:18:49;8.30;99.90
74822;DHT22;63353;48.702;8.884;2023-03-14T13:21:26;8.30;99.90
74822;DHT22;63353;48.702;8.884;2023-03-14T13:24:01;8.20;99.90
74822;DHT22;63353;48.702;8.884;2023-03-14T13:26:40;8.00;99.90
74822;DHT22;63353;48.702;8.884;2023-03-14T13:29:22;7.70;99.90
74822;DHT22;63353;48.702;8.884;2023-03-14T13:31:56;7.50;99.90
74822;DHT22;63353;48.702;8.884;2023-03-14T13:34:28;7.50;99.90
74822;DHT22;63353;48.702;8.884;2023-03-14T13:36:57;7.30;99.90
74822;DHT22;63353;48.702;8.884;2023-03-14T13:39:27;7.30;99.90
74822;DHT22;63353;48.702;8.884;2023-03-14T13:41:58;7.50;99.90
74822;DHT22;63353;48.702;8.884;2023-03-14T13:44:36;7.60;99.90
74822;DHT22;63353;48.702;8.884;2023-03-14T13:47:05;7.90;99.90
74822;DHT22;63353;48.702;8.884;2023-03-14T13:49:38;8.10;99.90
74822;DHT22;63353;48.702;8.884;2023-03-14T13:52:32;8.30;99.90
74822;DHT22;63353;48.702;8.884;2023-03-14T13:55:01;8.30;99.90
74822;DHT22;63353;48.702;8.884;2023-03-14T13:57:46;8.10;99.90
74822;DHT22;63353;48.702;8.884;2023-03-14T14:00:20;8.10;99.90
74822;DHT22;63353;48.702;8.884;2023-03-14T14:02:48;7.90;99.90
74822;DHT22;63353;48.702;8.884;2023-03-14T14:05:19;7.90;99.90
74822;DHT22;63353;48.702;8.884;2023-03-14T14:07:45;8.10;99.90
74822;DHT22;63353;48.702;8.884;2023-03-14T14:10:12;8.80;99.90
74822;DHT22;63353;48.702;8.884;2023-03-14T14:13:01;8.40;99.90
74822;DHT22;63353;48.702;8.884;2023-03-14T14:15:33;8.30;99.90
74822;DHT22;63353;48.702;8.884;2023-03-14T14:18:03;7.90;99.90
74822;DHT22;63353;48.702;8.884;2023-03-14T14:20:38;7.60;99.90
74822;DHT22;63353;48.702;8.884;2023-03-14T14:23:10;7.50;99.90
74822;DHT22;63353;48.702;8.884;2023-03-14T14:25:36;7.20;99.90
74822;DHT22;63353;48.702;8.884;2023-03-14T14:28:34;7.00;99.90
74822;DHT22;63353;48.702;8.884;2023-03-14T14:31:21;7.00;99.90
74822;DHT22;63353;48.702;8.884;2023-03-14T14:33:58;7.00;99.90
74822;DHT22;63353;48.702;8.884;2023-03-14T14:36:37;7.20;99.90
74822;DHT22;63353;48.702;8.884;2023-03-14T14:41:34;7.20;99.90
74822;DHT22;63353;48.702;8.884;2023-03-14T14:44:07;7.30;99.90
74822;DHT22;63353;48.702;8.884;2023-03-14T14:46:36;7.20;99.90
74822;DHT22;63353;48.702;8.884;2023-03-14T14:49:06;7.20;99.90
74822;DHT22;63353;48.702;8.884;2023-03-14T14:51:42;7.20;99.90
74822;DHT22;63353;48.702;8.884;2023-03-14T14:54:19;7.30;99.90
74822;DHT22;63353;48.702;8.884;2023-03-14T14:56:52;7.20;99.90
74822;DHT22;63353;48.702;8.884;2023-03-14T14:59:28;7.20;99.90
74822;DHT22;63353;48.702;8.884;2023-03-14T15:02:01;7.20;99.90
74822;DHT22;63353;48.702;8.884;2023-03-14T15:04:31;7.10;99.90
74822;DHT22;63353;48.702;8.884;2023-03-14T15:07:00;7.20;99.90
74822;DHT22;63353;48.702;8.884;2023-03-14T15:09:25;7.10;99.90
74822;DHT22;63353;48.702;8.884;2023-03-14T15:11:51;7.10;99.90
74822;DHT22;63353;48.702;8.884;2023-03-14T15:14:17;7.30;99.90
74822;DHT22;63353;48.702;8.884;2023-03-14T15:16:45;7.50;99.90
74822;DHT22;63353;48.702;8.884;2023-03-14T15:19:21;7.40;99.90
74822;DHT22;63353;48.702;8.884;2023-03-14T15:21:50;7.20;99.90
74822;DHT22;63353;48.702;8.884;2023-03-14T15:24:16;7.00;99.90
74822;DHT22;63353;48.702;8.884;2023-03-14T15:26:41;7.00;99.90
74822;DHT22;63353;48.702;8.884;2023-03-14T15:29:10;6.90;99.90
74822;DHT22;63353;48.702;8.884;2023-03-14T15:31:40;6.90;99.90
74822;DHT22;63353;48.702;8.884;2023-03-14T15:34:06;6.90;99.90
74822;DHT22;63353;48.702;8.884;2023-03-14T15:36:33;6.80;99.90
74822;DHT22;63353;48.702;8.884;2023-03-14T15:39:00;6.80;99.90
74822;DHT22;63353;48.702;8.884;2023-03-14T15:41:27;6.80;99.90
74822;DHT22;63353;48.702;8.884;2023-03-14T15:43:54;6.80;99.90
74822;DHT22;63353;48.702;8.884;2023-03-14T15:46:20;6.80;99.90
74822;DHT22;63353;48.702;8.884;2023-03-14T15:48:48;6.90;99.90
74822;DHT22;63353;48.702;8.884;2023-03-14T15:51:14;7.00;99.90
74822;DHT22;63353;48.702;8.884;2023-03-14T15:53:43;7.10;99.90
74822;DHT22;63353;48.702;8.884;2023-03-14T15:56:12;7.80;99.90
74822;DHT22;63353;48.702;8.884;2023-03-14T15:58:41;8.10;99.90
74822;DHT22;63353;48.702;8.884;2023-03-14T16:01:08;8.70;99.90
74822;DHT22;63353;48.702;8.884;2023-03-14T16:03:37;8.80;99.90
74822;DHT22;63353;48.702;8.884;2023-03-14T16:06:03;8.50;99.90
74822;DHT22;63353;48.702;8.884;2023-03-14T16:08:29;8.30;99.90
74822;DHT22;63353;48.702;8.884;2023-03-14T16:10:56;8.40;99.90
74822;DHT22;63353;48.702;8.884;2023-03-14T16:13:22;10.00;99.90
74822;DHT22;63353;48.702;8.884;2023-03-14T16:15:57;11.50;99.90
74822;DHT22;63353;48.702;8.884;2023-03-14T16:18:23;11.70;99.90
74822;DHT22;63353;48.702;8.884;2023-03-14T16:20:53;10.20;99.90
74822;DHT22;63353;48.702;8.884;2023-03-14T16:23:18;9.30;99.90
74822;DHT22;63353;48.702;8.884;2023-03-14T16:25:47;8.60;99.90
74822;DHT22;63353;48.702;8.884;2023-03-14T16:28:19;8.10;99.90
74822;DHT22;63353;48.702;8.884;2023-03-14T16:30:48;7.60;99.90
74822;DHT22;63353;48.702;8.884;2023-03-14T16:33:14;7.30;99.90
74822;DHT22;63353;48.702;8.884;2023-03-14T16:35:40;7.10;99.90
74822;DHT22;63353;48.702;8.884;2023-03-14T16:38:13;7.00;99.90
74822;DHT22;63353;48.702;8.884;2023-03-14T16:40:38;6.90;99.90
74822;DHT22;63353;48.702;8.884;2023-03-14T16:43:04;6.80;99.90
74822;DHT22;63353;48.702;8.884;2023-03-14T16:45:35;6.80;99.90
74822;DHT22;63353;48.702;8.884;2023-03-14T16:48:01;6.70;99.90
74822;DHT22;63353;48.702;8.884;2023-03-14T16:50:35;6.70;99.90
74822;DHT22;63353;48.702;8.884;2023-03-14T16:53:04;6.60;99.90
74822;DHT22;63353;48.702;8.884;2023-03-14T16:55:40;6.50;99.90
74822;DHT22;63353;48.702;8.884;2023-03-14T16:58:06;6.50;99.90
74822;DHT22;63353;48.702;8.884;2023-03-14T17:00:32;6.40;99.90
74822;DHT22;63353;48.702;8.884;2023-03-14T17:02:58;6.20;99.90
74822;DHT22;63353;48.702;8.884;2023-03-14T17:05:26;6.20;99.90
74822;DHT22;63353;48.702;8.884;2023-03-14T17:07:52;6.00;99.90
74822;DHT22;63353;48.702;8.884;2023-03-14T17:10:17;5.90;99.90
74822;DHT22;63353;48.702;8.884;2023-03-14T17:12:44;5.80;99.90
74822;DHT22;63353;48.702;8.884;2023-03-14T17:15:10;5.70;99.90